Flight Track Log - Related Links

Times and Time Zones

All times are in EDT time to prevent confusion due to time zone crossing. See the UAL4336 flight status page for this flight to view local times or setup timezone preferences in your user account.

Time Position Orientation Groundspeed Altitude Reporting Facility
EDT Latitude Longitude Course Direction KTS MPH feet Rate Location/Type
Fri 10:05:35 29.9775 -95.3103 90° East 156 180 700  Level Houston Center
Fri 10:07:02 29.9572 -95.2236 105° East 196 226 3,700 1,651 Climbing Houston Center
Fri 10:08:04 29.9439 -95.1414 101° East 256 295 4,800 1,742 Climbing Houston Center
Fri 10:09:00 29.9833 -94.8604 90° East  Level FlightAware Approximate
Fri 10:09:06 29.9508 -95.0539 85° East 271 312 7,300  Level Houston Center
Fri 10:10:00 29.9834 -94.7422 90° East  Level FlightAware Approximate
Fri 10:10:08 29.9550 -94.9639 87° East 279 321 10,100  Level Houston Center
Fri 10:11:10 29.9625 -94.8608 85° East 313 360 11,000 919 Climbing Houston Center
Fri 10:12:12 29.9703 -94.7403 86° East 363 418 12,000 1,355 Climbing Houston Center
Fri 10:13:14 29.9786 -94.6158 86° East 385 443 13,800 1,824 Climbing Houston Center
Fri 10:14:17 29.9886 -94.4606 86° East 395 455 15,800 1,680 Climbing Houston Center
Fri 10:15:19 29.9931 -94.3344 88° East 396 456 17,300 1,355 Climbing Houston Center
Fri 10:16:21 30.0089 -94.2047 82° East 405 466 18,600 1,056 Climbing Houston Center
Fri 10:17:24 30.0261 -94.0736 81° East 412 474 19,500 774 Climbing Houston Center
Fri 10:18:25 30.0425 -93.9319 82° East 445 512 20,200 927 Climbing Houston Center
Fri 10:19:27 30.0633 -93.7608 82° East 449 517 21,400 1,016 Climbing Houston Center
Fri 10:20:29 30.0803 -93.6144 82° East 457 526 22,300 726 Climbing Houston Center
Fri 10:21:31 30.0975 -93.4647 82° East 474 545 22,900 336 Climbing Houston Center
Fri 10:22:34 30.1164 -93.3114 82° East 487 560 23,000 48 Climbing Houston Center
Fri 10:23:36 30.1347 -93.1528 82° East 501 577 23,000  Level Houston Center
Fri 10:24:38 30.1678 -92.9653 78° East 500 575 23,000 -48 Level Houston Center
Fri 10:25:40 30.1986 -92.8108 77° East 496 571 22,900 -484 Descending Houston Center
Fri 10:26:42 30.2286 -92.6564 77° East 497 572 22,000 -1,500 Descending Houston Center
Fri 10:27:44 30.2575 -92.5058 77° East 483 556 19,800 -2,226 Descending Houston Center
Fri 10:28:46 30.2850 -92.3628 77° East 462 532 17,400 -2,226 Descending Houston Center
Fri 10:29:48 30.3142 -92.2078 78° East 438 504 15,200 -1,968 Descending Houston Center
Fri 10:30:51 30.3392 -92.0800 77° East 417 480 13,300 -1,584 Descending Houston Center
Fri 10:31:53 30.3606 -91.9628 78° East 389 448 11,900 -1,065 Descending Houston Center
Fri 10:32:55 30.3883 -91.8219 77° East 379 436 11,100 -484 Descending Houston Center
Fri 10:33:57 30.4064 -91.7203 78° East 376 433 10,900 -629 Descending Houston Center
Fri 10:34:59 30.4697 -91.6192 54° Northeast 327 376 9,800 -1,113 Descending Houston Center
Fri 10:36:01 30.5214 -91.5578 46° Northeast 297 342 8,600 -1,306 Descending Houston Center
Fri 10:37:03 30.5700 -91.4981 47° Northeast 270 311 7,100 -1,597 Descending Houston Center
Fri 10:38:05 30.6258 -91.4300 46° Northeast 251 289 5,300 -1,548 Descending Houston Center
Fri 10:39:07 30.6192 -91.3567 96° East 261 300 3,900 -1,355 Descending Houston Center

Login

Don't have an account? Register now (free) for customized features, flight alerts, and more!